createdAt,value
2022-09-06T00:00:32.006Z,97.50
2022-09-06T00:03:33.799Z,97.10
2022-09-06T00:06:35.735Z,97.30
2022-09-06T00:09:37.440Z,97.50
2022-09-06T00:12:39.175Z,97.80
2022-09-06T00:15:40.950Z,98.10
2022-09-06T00:18:43.405Z,98.50
2022-09-06T00:21:45.108Z,98.50
2022-09-06T00:24:46.819Z,98.20
2022-09-06T00:27:52.744Z,97.40
2022-09-06T00:30:54.493Z,97.70
2022-09-06T00:33:56.261Z,97.90
2022-09-06T00:36:57.985Z,97.60
2022-09-06T00:39:59.744Z,98.20
2022-09-06T00:43:01.495Z,98.10
2022-09-06T00:46:05.022Z,98.20
2022-09-06T00:49:13.776Z,97.70
2022-09-06T00:52:16.878Z,97.30
2022-09-06T00:55:19.535Z,97.30
2022-09-06T00:58:21.843Z,97.50
2022-09-06T01:01:23.748Z,97.40
2022-09-06T01:04:26.651Z,97.40
2022-09-06T01:07:31.356Z,97.50
2022-09-06T01:10:59.679Z,97.40
2022-09-06T01:14:19.100Z,96.70
2022-09-06T01:17:45.724Z,97.30
2022-09-06T01:20:50.464Z,97.60
2022-09-06T01:24:15.183Z,97.80
2022-09-06T01:27:40.052Z,97.50
2022-09-06T01:30:48.939Z,96.80
2022-09-06T01:33:59.559Z,96.40
2022-09-06T01:37:10.918Z,96.40
2022-09-06T01:40:12.880Z,96.70
2022-09-06T01:43:23.548Z,96.50
2022-09-06T01:46:43.476Z,97.20
2022-09-06T01:49:51.989Z,96.70
2022-09-06T01:53:09.544Z,96.80
2022-09-06T01:56:56.032Z,97.40
2022-09-06T02:00:15.569Z,96.90
2022-09-06T02:03:44.663Z,96.80
2022-09-06T02:06:54.655Z,98.20
2022-09-06T02:10:09.135Z,98.00
2022-09-06T02:13:13.228Z,98.40
2022-09-06T02:16:21.054Z,98.40
2022-09-06T02:19:31.904Z,98.10
2022-09-06T02:22:40.301Z,97.30
2022-09-06T02:25:47.210Z,97.20
2022-09-06T02:28:49.451Z,97.10
2022-09-06T02:31:56.224Z,97.10
2022-09-06T02:34:58.409Z,96.90
2022-09-06T02:38:00.167Z,96.90
2022-09-06T02:41:03.199Z,97.50
2022-09-06T02:44:04.911Z,96.70
2022-09-06T02:47:06.776Z,96.60
2022-09-06T02:50:08.775Z,97.40
2022-09-06T02:53:13.328Z,97.30
2022-09-06T02:56:15.072Z,97.40
2022-09-06T02:59:16.811Z,97.70
2022-09-06T03:02:19.183Z,98.10
2022-09-06T03:05:21.096Z,97.60
2022-09-06T03:08:26.321Z,97.60
2022-09-06T03:11:28.481Z,97.50
2022-09-06T03:14:30.269Z,97.80
2022-09-06T03:17:31.984Z,97.80
2022-09-06T03:20:36.937Z,97.60
2022-09-06T03:23:39.535Z,98.00
2022-09-06T03:26:41.237Z,98.70
2022-09-06T03:29:42.940Z,99.60
2022-09-06T03:32:45.141Z,99.60
2022-09-06T03:35:58.492Z,99.90
2022-09-06T03:39:00.218Z,99.90
2022-09-06T03:42:02.016Z,99.90
2022-09-06T03:45:04.063Z,99.90
2022-09-06T03:48:05.811Z,99.90
2022-09-06T03:51:07.567Z,99.90
2022-09-06T03:54:09.346Z,99.90
2022-09-06T03:57:11.133Z,99.90
2022-09-06T04:00:13.969Z,99.90
2022-09-06T04:03:15.919Z,99.90
2022-09-06T04:06:17.777Z,99.90
2022-09-06T04:09:19.596Z,99.90
2022-09-06T04:12:21.368Z,99.90
2022-09-06T04:15:23.108Z,99.90
2022-09-06T04:18:25.653Z,99.90
2022-09-06T04:21:28.149Z,99.90
2022-09-06T04:24:29.844Z,99.90
2022-09-06T04:27:31.782Z,99.90
2022-09-06T04:30:33.479Z,99.90
2022-09-06T04:33:36.460Z,99.90
2022-09-06T04:36:38.173Z,99.90
2022-09-06T04:39:39.945Z,99.90
2022-09-06T04:42:41.631Z,99.90
2022-09-06T04:45:44.605Z,99.90
2022-09-06T04:48:47.260Z,99.90
2022-09-06T04:51:48.993Z,99.90
2022-09-06T04:54:50.697Z,99.90
2022-09-06T04:57:52.953Z,99.90
2022-09-06T05:00:54.850Z,99.90
2022-09-06T05:03:57.256Z,99.90
2022-09-06T05:07:06.915Z,99.90
2022-09-06T05:10:08.964Z,99.90
2022-09-06T05:13:11.749Z,99.90
2022-09-06T05:16:14.036Z,99.90
2022-09-06T05:19:16.691Z,99.90
2022-09-06T05:22:18.584Z,99.90
2022-09-06T05:25:20.631Z,99.90
2022-09-06T05:28:23.057Z,99.90
2022-09-06T05:31:30.233Z,99.90
2022-09-06T05:34:31.985Z,99.90
2022-09-06T05:37:33.675Z,99.90
2022-09-06T05:40:35.381Z,99.90
2022-09-06T05:43:37.173Z,99.90
2022-09-06T05:46:43.383Z,99.90
2022-09-06T05:49:46.178Z,99.90
2022-09-06T05:52:47.877Z,99.90
2022-09-06T05:55:49.564Z,99.90
2022-09-06T05:58:51.339Z,99.90
2022-09-06T06:01:53.995Z,99.90
2022-09-06T06:04:55.936Z,99.90
2022-09-06T06:07:59.473Z,99.90
2022-09-06T06:11:02.388Z,99.90
2022-09-06T06:14:04.936Z,99.90
2022-09-06T06:17:06.615Z,99.90
2022-09-06T06:20:08.919Z,99.90
2022-09-06T06:23:10.641Z,99.90
2022-09-06T06:26:13.404Z,99.90
2022-09-06T06:29:15.113Z,99.90
2022-09-06T06:32:16.788Z,99.90
2022-09-06T06:35:18.486Z,99.90
2022-09-06T06:38:20.185Z,99.90
2022-09-06T06:41:24.046Z,99.90
2022-09-06T06:44:28.037Z,99.90
2022-09-06T06:47:29.722Z,99.90
2022-09-06T06:50:31.425Z,99.90
2022-09-06T06:53:33.345Z,99.90
2022-09-06T06:56:37.587Z,99.90
2022-09-06T06:59:39.825Z,99.90
2022-09-06T07:02:41.508Z,99.90
2022-09-06T07:09:04.979Z,99.90
2022-09-06T07:12:06.824Z,99.90
2022-09-06T07:15:09.072Z,99.90
2022-09-06T07:18:10.741Z,99.90
2022-09-06T07:24:36.115Z,99.90
2022-09-06T07:27:53.074Z,99.90
2022-09-06T07:30:55.747Z,99.90
2022-09-06T07:33:58.163Z,99.90
2022-09-06T07:36:59.883Z,99.90
2022-09-06T07:40:02.228Z,99.90
2022-09-06T07:43:03.959Z,99.90
2022-09-06T07:46:08.684Z,99.90
2022-09-06T07:49:10.363Z,99.90
2022-09-06T07:55:34.018Z,99.90
2022-09-06T07:58:36.391Z,99.90
2022-09-06T08:01:39.198Z,99.90
2022-09-06T08:04:41.959Z,99.90
2022-09-06T08:07:43.685Z,99.90
2022-09-06T08:10:50.560Z,99.90
2022-09-06T08:13:54.765Z,99.90
2022-09-06T08:16:56.468Z,99.90
2022-09-06T08:19:58.252Z,99.90
2022-09-06T08:23:00.006Z,99.90
2022-09-06T08:26:01.755Z,99.90
2022-09-06T08:29:08.948Z,99.90
2022-09-06T08:32:11.037Z,99.90
2022-09-06T08:35:12.744Z,99.90
2022-09-06T08:38:14.423Z,99.90
2022-09-06T08:41:27.880Z,99.90
2022-09-06T08:47:57.741Z,99.90
2022-09-06T08:51:33.402Z,98.70
2022-09-06T08:54:59.516Z,98.00
2022-09-06T08:58:29.040Z,96.60
2022-09-06T09:01:43.695Z,94.90
2022-09-06T09:04:55.985Z,89.40
2022-09-06T09:08:13.865Z,88.90
2022-09-06T09:11:19.099Z,87.90
2022-09-06T09:14:22.327Z,88.00
2022-09-06T09:17:31.223Z,86.50
2022-09-06T09:20:32.995Z,85.80
2022-09-06T09:23:35.333Z,85.00
2022-09-06T09:26:51.311Z,86.50
2022-09-06T09:33:26.942Z,87.30
2022-09-06T09:36:28.772Z,81.90
2022-09-06T09:39:36.655Z,80.30
2022-09-06T09:42:39.176Z,78.60
2022-09-06T09:45:40.947Z,80.20
2022-09-06T09:49:06.045Z,77.50
2022-09-06T09:52:14.942Z,74.00
2022-09-06T09:55:21.434Z,75.10
2022-09-06T09:58:48.741Z,72.80
2022-09-06T10:01:55.257Z,68.80
2022-09-06T10:05:09.700Z,68.10
2022-09-06T10:08:13.095Z,67.10
2022-09-06T10:11:15.429Z,64.40
2022-09-06T10:14:31.705Z,65.70
2022-09-06T10:17:34.999Z,63.30
2022-09-06T10:20:44.800Z,63.40
2022-09-06T10:24:34.158Z,58.70
2022-09-06T10:27:55.450Z,58.60
2022-09-06T10:31:35.035Z,57.90
2022-09-06T10:35:10.988Z,58.10
2022-09-06T10:38:35.866Z,56.00
2022-09-06T10:41:43.860Z,56.40
2022-09-06T10:45:12.877Z,56.20
2022-09-06T10:48:32.440Z,53.40
2022-09-06T10:51:41.298Z,53.90
2022-09-06T10:54:46.923Z,56.00
2022-09-06T11:01:25.264Z,56.10
2022-09-06T11:11:40.219Z,57.70
2022-09-06T11:14:41.948Z,58.20
2022-09-06T11:17:52.322Z,57.90
2022-09-06T11:21:06.964Z,57.70
2022-09-06T11:24:17.730Z,58.90
2022-09-06T11:27:37.914Z,57.60
2022-09-06T11:30:46.929Z,57.70
2022-09-06T11:33:49.913Z,58.90
2022-09-06T11:36:59.872Z,57.20
2022-09-06T11:43:43.479Z,57.90
2022-09-06T11:46:45.167Z,57.90
2022-09-06T11:49:46.938Z,57.60
2022-09-06T11:53:03.063Z,57.70
2022-09-06T11:56:04.724Z,58.00
2022-09-06T11:59:18.889Z,56.50
2022-09-06T12:02:38.992Z,56.70
2022-09-06T12:06:19.032Z,58.20
2022-09-06T12:09:35.535Z,57.30
2022-09-06T12:12:48.542Z,57.30
2022-09-06T12:15:55.085Z,56.90
2022-09-06T12:18:58.712Z,58.50
2022-09-06T12:22:00.472Z,56.70
2022-09-06T12:25:16.617Z,58.30
2022-09-06T12:28:42.106Z,57.10
2022-09-06T12:31:53.314Z,56.20
2022-09-06T12:38:24.420Z,56.40
2022-09-06T12:41:28.945Z,54.40
2022-09-06T12:44:50.792Z,54.30
2022-09-06T12:48:08.674Z,52.90
2022-09-06T12:51:19.477Z,53.70
2022-09-06T12:54:26.721Z,53.70
2022-09-06T12:57:29.580Z,54.00
2022-09-06T13:00:37.090Z,52.80
2022-09-06T13:03:45.589Z,53.90
2022-09-06T13:06:48.385Z,53.10
2022-09-06T13:09:54.608Z,54.50
2022-09-06T13:12:58.586Z,53.90
2022-09-06T13:16:00.449Z,52.60
2022-09-06T13:19:36.006Z,52.50
2022-09-06T13:22:47.506Z,52.20
2022-09-06T13:25:52.332Z,54.10
2022-09-06T13:28:54.191Z,52.20
2022-09-06T13:31:59.497Z,51.70
2022-09-06T13:35:02.432Z,51.90
2022-09-06T13:38:32.824Z,53.10
2022-09-06T13:41:41.142Z,52.90
2022-09-06T13:44:42.986Z,54.50
2022-09-06T13:47:44.705Z,52.80
2022-09-06T13:50:46.397Z,53.00
2022-09-06T13:53:48.866Z,53.40
2022-09-06T13:56:50.607Z,51.60
2022-09-06T13:59:52.330Z,51.00
2022-09-06T14:07:41.813Z,51.60
2022-09-06T14:10:43.856Z,52.30
2022-09-06T14:13:45.792Z,50.80
2022-09-06T14:16:56.675Z,51.20
2022-09-06T14:19:58.567Z,51.30
2022-09-06T14:23:04.220Z,51.80
2022-09-06T14:26:06.178Z,52.20
2022-09-06T14:29:08.247Z,51.90
2022-09-06T14:32:11.573Z,48.30
2022-09-06T14:35:13.467Z,50.00
2022-09-06T14:38:15.754Z,51.60
2022-09-06T14:41:18.895Z,52.00
2022-09-06T14:44:20.749Z,49.90
2022-09-06T14:47:22.493Z,50.00
2022-09-06T14:50:24.238Z,49.10
2022-09-06T14:53:39.797Z,48.40
2022-09-06T14:56:44.128Z,48.00
2022-09-06T14:59:45.922Z,43.90
2022-09-06T15:02:47.701Z,44.10
2022-09-06T15:05:49.540Z,43.30
2022-09-06T15:08:54.609Z,43.10
2022-09-06T15:12:00.828Z,44.10
2022-09-06T15:15:03.321Z,43.20
2022-09-06T15:18:05.097Z,43.50
2022-09-06T15:21:12.062Z,44.00
2022-09-06T15:24:15.143Z,43.20
2022-09-06T15:27:16.903Z,41.40
2022-09-06T15:30:18.697Z,42.20
2022-09-06T15:33:20.412Z,41.40
2022-09-06T15:36:22.531Z,41.00
2022-09-06T15:39:24.434Z,42.20
2022-09-06T15:42:26.230Z,42.10
2022-09-06T15:45:28.017Z,41.70
2022-09-06T15:48:39.139Z,42.00
2022-09-06T15:51:42.139Z,42.50
2022-09-06T15:55:02.373Z,44.50
2022-09-06T15:58:30.758Z,44.70
2022-09-06T16:01:56.035Z,44.30
2022-09-06T16:06:29.871Z,44.80
2022-09-06T16:09:43.301Z,49.60
2022-09-06T16:12:48.673Z,47.30
2022-09-06T16:15:57.067Z,55.60
2022-09-06T16:19:00.099Z,50.80
2022-09-06T16:22:02.399Z,51.40
2022-09-06T16:25:04.480Z,48.70
2022-09-06T16:28:06.169Z,47.90
2022-09-06T16:31:10.144Z,48.10
2022-09-06T16:34:13.003Z,47.10
2022-09-06T16:37:14.892Z,46.70
2022-09-06T16:40:16.735Z,50.70
2022-09-06T16:43:19.007Z,45.40
2022-09-06T16:46:23.140Z,46.40
2022-09-06T16:49:24.944Z,46.90
2022-09-06T16:52:26.692Z,47.30
2022-09-06T16:55:28.393Z,47.00
2022-09-06T16:58:30.218Z,48.80
2022-09-06T17:01:32.919Z,49.30
2022-09-06T17:04:34.695Z,49.30
2022-09-06T17:07:36.524Z,53.00
2022-09-06T17:10:39.359Z,54.00
2022-09-06T17:13:42.369Z,53.20
2022-09-06T17:17:03.080Z,53.30
2022-09-06T17:20:05.355Z,54.10
2022-09-06T17:23:07.032Z,54.30
2022-09-06T17:26:08.887Z,57.00
2022-09-06T17:29:10.734Z,55.30
2022-09-06T17:32:12.432Z,56.30
2022-09-06T17:35:14.155Z,56.80
2022-09-06T17:38:16.410Z,57.70
2022-09-06T17:41:24.680Z,59.00
2022-09-06T17:44:26.867Z,63.10
2022-09-06T17:47:28.584Z,61.50
2022-09-06T17:50:31.732Z,64.30
2022-09-06T17:53:34.727Z,64.20
2022-09-06T17:56:37.576Z,62.80
2022-09-06T17:59:39.420Z,69.20
2022-09-06T18:02:41.255Z,72.00
2022-09-06T18:05:43.687Z,69.90
2022-09-06T18:08:46.753Z,69.90
2022-09-06T18:11:48.578Z,73.00
2022-09-06T18:14:50.267Z,69.00
2022-09-06T18:17:52.012Z,73.60
2022-09-06T18:20:53.845Z,70.00
2022-09-06T18:23:56.700Z,69.50
2022-09-06T18:26:58.415Z,67.60
2022-09-06T18:30:00.095Z,66.40
2022-09-06T18:33:01.772Z,66.10
2022-09-06T18:36:07.398Z,65.40
2022-09-06T18:39:09.263Z,64.80
2022-09-06T18:42:11.358Z,67.40
2022-09-06T18:45:13.288Z,66.80
2022-09-06T18:48:15.821Z,69.30
2022-09-06T18:51:17.571Z,69.60
2022-09-06T18:54:19.761Z,71.60
2022-09-06T18:57:21.519Z,76.50
2022-09-06T19:00:25.576Z,75.90
2022-09-06T19:03:27.327Z,79.10
2022-09-06T19:06:31.369Z,76.50
2022-09-06T19:09:33.212Z,76.90
2022-09-06T19:12:34.931Z,76.60
2022-09-06T19:15:36.996Z,78.90
2022-09-06T19:18:39.540Z,80.10
2022-09-06T19:21:42.587Z,80.70
2022-09-06T19:24:44.509Z,81.70
2022-09-06T19:27:48.786Z,81.50
2022-09-06T19:30:50.805Z,81.10
2022-09-06T19:33:53.716Z,80.00
2022-09-06T19:36:57.165Z,81.60
2022-09-06T19:39:58.900Z,83.00
2022-09-06T19:43:00.725Z,79.10
2022-09-06T19:46:07.380Z,83.20
2022-09-06T19:49:09.232Z,83.50
2022-09-06T19:52:11.511Z,84.30
2022-09-06T19:55:13.323Z,84.50
2022-09-06T19:58:15.127Z,84.70
2022-09-06T20:01:17.968Z,84.80
2022-09-06T20:04:20.875Z,85.20
2022-09-06T20:07:22.727Z,87.10
2022-09-06T20:10:25.604Z,87.80
2022-09-06T20:13:28.815Z,90.00
2022-09-06T20:16:30.678Z,88.00
2022-09-06T20:19:32.624Z,89.70
2022-09-06T20:22:34.378Z,87.70
2022-09-06T20:25:37.770Z,86.00
2022-09-06T20:28:39.810Z,89.10
2022-09-06T20:31:41.603Z,90.00
2022-09-06T20:34:43.435Z,91.00
2022-09-06T20:37:45.143Z,91.20
2022-09-06T20:40:46.935Z,91.20
2022-09-06T20:43:57.681Z,91.40
2022-09-06T20:47:00.847Z,91.30
2022-09-06T20:50:02.578Z,91.60
2022-09-06T20:53:04.267Z,91.20
2022-09-06T20:56:11.577Z,91.30
2022-09-06T20:59:13.771Z,91.20
2022-09-06T21:02:16.173Z,91.50
2022-09-06T21:05:18.084Z,91.20
2022-09-06T21:08:20.684Z,90.90
2022-09-06T21:11:23.081Z,90.80
2022-09-06T21:14:25.137Z,90.60
2022-09-06T21:17:26.819Z,91.50
2022-09-06T21:20:29.377Z,91.00
2022-09-06T21:23:33.920Z,91.10
2022-09-06T21:26:35.677Z,91.00
2022-09-06T21:29:37.676Z,91.40
2022-09-06T21:32:39.416Z,91.00
2022-09-06T21:35:41.157Z,91.50
2022-09-06T21:38:46.104Z,92.10
2022-09-06T21:41:47.957Z,91.80
2022-09-06T21:44:49.632Z,91.50
2022-09-06T21:47:52.057Z,92.00
2022-09-06T21:50:53.761Z,91.20
2022-09-06T21:53:56.963Z,91.90
2022-09-06T21:56:58.664Z,91.80
2022-09-06T22:00:00.394Z,91.80
2022-09-06T22:03:02.528Z,92.00
2022-09-06T22:06:25.398Z,91.60
2022-09-06T22:09:27.300Z,91.60
2022-09-06T22:12:29.023Z,92.20
2022-09-06T22:15:30.721Z,92.10
2022-09-06T22:18:33.409Z,92.10
2022-09-06T22:21:35.471Z,92.80
2022-09-06T22:24:37.149Z,92.10
2022-09-06T22:27:39.274Z,93.20
2022-09-06T22:30:41.639Z,91.70
2022-09-06T22:33:44.533Z,92.30
2022-09-06T22:36:46.390Z,91.40
2022-09-06T22:39:48.132Z,91.30
2022-09-06T22:42:49.913Z,91.60
2022-09-06T22:45:52.233Z,91.70
2022-09-06T22:48:54.133Z,92.30
2022-09-06T22:51:55.917Z,91.80
2022-09-06T22:54:57.625Z,91.50
2022-09-06T22:57:59.338Z,92.40
2022-09-06T23:01:13.154Z,91.80
2022-09-06T23:04:15.053Z,91.90
2022-09-06T23:07:17.162Z,92.10
2022-09-06T23:10:19.028Z,91.30
2022-09-06T23:13:20.759Z,92.30
2022-09-06T23:16:22.517Z,93.00
2022-09-06T23:19:24.797Z,93.30
2022-09-06T23:22:26.651Z,93.60
2022-09-06T23:25:28.475Z,94.30
2022-09-06T23:28:30.920Z,94.20
2022-09-06T23:31:32.830Z,93.20
2022-09-06T23:34:34.691Z,94.40
2022-09-06T23:37:36.680Z,93.90
2022-09-06T23:40:38.374Z,94.40
2022-09-06T23:43:42.238Z,94.30
2022-09-06T23:46:44.012Z,95.10
2022-09-06T23:49:45.748Z,92.90
2022-09-06T23:52:47.733Z,92.90
2022-09-06T23:55:49.771Z,94.60
2022-09-06T23:58:51.464Z,94.80
